sensor_id;sensor_type;location;lat;lon;timestamp;P1;durP1;ratioP1;P2;durP2;ratioP2
5121;SDS011;2563;52.242;7.956;2022-10-19T00:02:22;26.20;;;8.77;;
5121;SDS011;2563;52.242;7.956;2022-10-19T00:04:47;26.03;;;8.07;;
5121;SDS011;2563;52.242;7.956;2022-10-19T00:07:12;25.53;;;8.00;;
5121;SDS011;2563;52.242;7.956;2022-10-19T00:09:38;21.47;;;8.30;;
5121;SDS011;2563;52.242;7.956;2022-10-19T00:12:03;27.17;;;7.80;;
5121;SDS011;2563;52.242;7.956;2022-10-19T00:14:29;28.77;;;8.77;;
5121;SDS011;2563;52.242;7.956;2022-10-19T00:16:54;22.80;;;6.63;;
5121;SDS011;2563;52.242;7.956;2022-10-19T00:19:21;20.13;;;7.67;;
5121;SDS011;2563;52.242;7.956;2022-10-19T00:21:48;38.30;;;8.40;;
5121;SDS011;2563;52.242;7.956;2022-10-19T00:24:14;22.10;;;8.53;;
5121;SDS011;2563;52.242;7.956;2022-10-19T00:26:40;21.90;;;6.97;;
5121;SDS011;2563;52.242;7.956;2022-10-19T00:29:05;28.07;;;7.20;;
5121;SDS011;2563;52.242;7.956;2022-10-19T00:31:31;22.03;;;5.83;;
5121;SDS011;2563;52.242;7.956;2022-10-19T00:33:56;17.10;;;6.20;;
5121;SDS011;2563;52.242;7.956;2022-10-19T00:36:24;14.93;;;5.03;;
5121;SDS011;2563;52.242;7.956;2022-10-19T00:38:51;14.13;;;5.93;;
5121;SDS011;2563;52.242;7.956;2022-10-19T00:41:18;16.30;;;4.73;;
5121;SDS011;2563;52.242;7.956;2022-10-19T00:46:32;9.90;;;3.50;;
5121;SDS011;2563;52.242;7.956;2022-10-19T00:49:00;9.27;;;4.10;;
5121;SDS011;2563;52.242;7.956;2022-10-19T00:51:28;11.60;;;4.47;;
5121;SDS011;2563;52.242;7.956;2022-10-19T00:53:57;9.57;;;4.40;;
5121;SDS011;2563;52.242;7.956;2022-10-19T00:56:22;10.40;;;4.20;;
5121;SDS011;2563;52.242;7.956;2022-10-19T00:58:48;18.73;;;4.30;;
5121;SDS011;2563;52.242;7.956;2022-10-19T01:01:18;13.63;;;4.87;;
5121;SDS011;2563;52.242;7.956;2022-10-19T01:03:46;14.47;;;4.43;;
5121;SDS011;2563;52.242;7.956;2022-10-19T01:06:12;16.73;;;5.50;;
5121;SDS011;2563;52.242;7.956;2022-10-19T01:08:40;11.63;;;4.47;;
5121;SDS011;2563;52.242;7.956;2022-10-19T01:27:59;11.40;;;3.70;;
5121;SDS011;2563;52.242;7.956;2022-10-19T01:31:08;8.50;;;3.77;;
5121;SDS011;2563;52.242;7.956;2022-10-19T01:36:49;12.90;;;4.27;;
5121;SDS011;2563;52.242;7.956;2022-10-19T01:39:31;16.20;;;4.40;;
5121;SDS011;2563;52.242;7.956;2022-10-19T01:42:23;12.57;;;4.57;;
5121;SDS011;2563;52.242;7.956;2022-10-19T01:47:46;11.63;;;4.13;;
5121;SDS011;2563;52.242;7.956;2022-10-19T01:53:04;17.03;;;3.70;;
5121;SDS011;2563;52.242;7.956;2022-10-19T01:55:32;12.47;;;3.63;;
5121;SDS011;2563;52.242;7.956;2022-10-19T01:58:01;15.30;;;4.00;;
5121;SDS011;2563;52.242;7.956;2022-10-19T02:00:30;6.47;;;2.60;;
5121;SDS011;2563;52.242;7.956;2022-10-19T02:02:58;10.23;;;3.17;;
5121;SDS011;2563;52.242;7.956;2022-10-19T02:05:26;9.50;;;3.03;;
5121;SDS011;2563;52.242;7.956;2022-10-19T02:07:57;7.40;;;2.90;;
5121;SDS011;2563;52.242;7.956;2022-10-19T02:10:25;8.83;;;3.07;;
5121;SDS011;2563;52.242;7.956;2022-10-19T02:12:52;7.00;;;2.80;;
5121;SDS011;2563;52.242;7.956;2022-10-19T02:15:20;7.37;;;3.00;;
5121;SDS011;2563;52.242;7.956;2022-10-19T02:17:48;8.13;;;2.70;;
5121;SDS011;2563;52.242;7.956;2022-10-19T02:20:17;8.67;;;3.00;;
5121;SDS011;2563;52.242;7.956;2022-10-19T02:22:44;8.43;;;3.23;;
5121;SDS011;2563;52.242;7.956;2022-10-19T02:25:09;11.23;;;3.23;;
5121;SDS011;2563;52.242;7.956;2022-10-19T02:27:36;15.50;;;3.20;;
5121;SDS011;2563;52.242;7.956;2022-10-19T02:30:06;7.87;;;2.73;;
5121;SDS011;2563;52.242;7.956;2022-10-19T02:32:33;13.43;;;2.77;;
5121;SDS011;2563;52.242;7.956;2022-10-19T02:34:58;11.27;;;3.00;;
5121;SDS011;2563;52.242;7.956;2022-10-19T02:37:24;10.57;;;5.30;;
5121;SDS011;2563;52.242;7.956;2022-10-19T02:39:49;10.10;;;3.07;;
5121;SDS011;2563;52.242;7.956;2022-10-19T02:45:00;8.30;;;2.83;;
5121;SDS011;2563;52.242;7.956;2022-10-19T02:47:42;8.53;;;3.10;;
5121;SDS011;2563;52.242;7.956;2022-10-19T02:50:12;8.33;;;3.10;;
5121;SDS011;2563;52.242;7.956;2022-10-19T02:52:38;7.97;;;2.80;;
5121;SDS011;2563;52.242;7.956;2022-10-19T02:55:04;16.47;;;3.20;;
5121;SDS011;2563;52.242;7.956;2022-10-19T02:57:31;7.83;;;3.00;;
5121;SDS011;2563;52.242;7.956;2022-10-19T02:59:56;14.10;;;3.63;;
5121;SDS011;2563;52.242;7.956;2022-10-19T03:02:22;8.60;;;2.70;;
5121;SDS011;2563;52.242;7.956;2022-10-19T03:04:47;8.40;;;2.67;;
5121;SDS011;2563;52.242;7.956;2022-10-19T03:07:14;6.10;;;3.07;;
5121;SDS011;2563;52.242;7.956;2022-10-19T03:09:41;8.23;;;3.00;;
5121;SDS011;2563;52.242;7.956;2022-10-19T03:12:06;10.47;;;2.90;;
5121;SDS011;2563;52.242;7.956;2022-10-19T03:14:32;7.50;;;2.90;;
5121;SDS011;2563;52.242;7.956;2022-10-19T03:16:58;11.60;;;3.23;;
5121;SDS011;2563;52.242;7.956;2022-10-19T03:19:23;7.03;;;2.80;;
5121;SDS011;2563;52.242;7.956;2022-10-19T03:21:48;12.20;;;3.23;;
5121;SDS011;2563;52.242;7.956;2022-10-19T03:24:14;5.50;;;2.77;;
5121;SDS011;2563;52.242;7.956;2022-10-19T03:26:39;11.23;;;3.37;;
5121;SDS011;2563;52.242;7.956;2022-10-19T03:29:05;11.67;;;2.63;;
5121;SDS011;2563;52.242;7.956;2022-10-19T03:31:30;5.97;;;2.43;;
5121;SDS011;2563;52.242;7.956;2022-10-19T03:33:55;12.57;;;3.00;;
5121;SDS011;2563;52.242;7.956;2022-10-19T03:36:25;8.07;;;2.70;;
5121;SDS011;2563;52.242;7.956;2022-10-19T03:38:56;9.00;;;2.63;;
5121;SDS011;2563;52.242;7.956;2022-10-19T03:41:24;7.90;;;2.40;;
5121;SDS011;2563;52.242;7.956;2022-10-19T03:43:50;7.07;;;2.80;;
5121;SDS011;2563;52.242;7.956;2022-10-19T03:46:16;11.03;;;2.83;;
5121;SDS011;2563;52.242;7.956;2022-10-19T03:48:41;7.73;;;2.73;;
5121;SDS011;2563;52.242;7.956;2022-10-19T03:51:08;11.30;;;3.00;;
5121;SDS011;2563;52.242;7.956;2022-10-19T03:53:35;6.30;;;2.43;;
5121;SDS011;2563;52.242;7.956;2022-10-19T03:56:04;5.63;;;2.27;;
5121;SDS011;2563;52.242;7.956;2022-10-19T03:58:33;11.63;;;2.93;;
5121;SDS011;2563;52.242;7.956;2022-10-19T04:01:00;10.00;;;2.70;;
5121;SDS011;2563;52.242;7.956;2022-10-19T04:03:25;7.93;;;2.37;;
5121;SDS011;2563;52.242;7.956;2022-10-19T04:05:51;6.60;;;2.60;;
5121;SDS011;2563;52.242;7.956;2022-10-19T04:08:16;7.50;;;2.50;;
5121;SDS011;2563;52.242;7.956;2022-10-19T04:10:42;7.20;;;2.50;;
5121;SDS011;2563;52.242;7.956;2022-10-19T04:13:07;11.50;;;3.07;;
5121;SDS011;2563;52.242;7.956;2022-10-19T04:15:33;11.03;;;2.50;;
5121;SDS011;2563;52.242;7.956;2022-10-19T04:17:58;7.93;;;2.40;;
5121;SDS011;2563;52.242;7.956;2022-10-19T04:20:24;6.90;;;2.73;;
5121;SDS011;2563;52.242;7.956;2022-10-19T04:22:51;8.60;;;2.37;;
5121;SDS011;2563;52.242;7.956;2022-10-19T04:25:16;9.33;;;3.10;;
5121;SDS011;2563;52.242;7.956;2022-10-19T04:27:42;8.67;;;2.23;;
5121;SDS011;2563;52.242;7.956;2022-10-19T04:30:07;6.43;;;2.20;;
5121;SDS011;2563;52.242;7.956;2022-10-19T04:32:33;12.83;;;2.50;;
5121;SDS011;2563;52.242;7.956;2022-10-19T04:34:58;7.20;;;3.03;;
5121;SDS011;2563;52.242;7.956;2022-10-19T04:37:23;5.50;;;2.57;;
5121;SDS011;2563;52.242;7.956;2022-10-19T04:39:48;10.23;;;2.67;;
5121;SDS011;2563;52.242;7.956;2022-10-19T04:42:14;14.10;;;2.10;;
5121;SDS011;2563;52.242;7.956;2022-10-19T04:44:39;8.13;;;3.30;;
5121;SDS011;2563;52.242;7.956;2022-10-19T04:47:04;4.70;;;2.30;;
5121;SDS011;2563;52.242;7.956;2022-10-19T04:49:30;13.97;;;2.73;;
5121;SDS011;2563;52.242;7.956;2022-10-19T04:51:55;16.40;;;2.60;;
5121;SDS011;2563;52.242;7.956;2022-10-19T04:54:20;6.60;;;2.50;;
5121;SDS011;2563;52.242;7.956;2022-10-19T04:56:45;6.10;;;2.10;;
5121;SDS011;2563;52.242;7.956;2022-10-19T04:59:11;5.97;;;2.40;;
5121;SDS011;2563;52.242;7.956;2022-10-19T05:01:36;7.50;;;2.10;;
5121;SDS011;2563;52.242;7.956;2022-10-19T05:04:02;7.87;;;2.90;;
5121;SDS011;2563;52.242;7.956;2022-10-19T05:06:29;6.40;;;2.20;;
5121;SDS011;2563;52.242;7.956;2022-10-19T05:08:55;6.83;;;2.57;;
5121;SDS011;2563;52.242;7.956;2022-10-19T05:11:20;6.63;;;2.57;;
5121;SDS011;2563;52.242;7.956;2022-10-19T05:13:46;8.43;;;2.50;;
5121;SDS011;2563;52.242;7.956;2022-10-19T05:16:13;8.27;;;2.57;;
5121;SDS011;2563;52.242;7.956;2022-10-19T05:18:49;8.13;;;2.50;;
5121;SDS011;2563;52.242;7.956;2022-10-19T05:21:16;6.53;;;2.43;;
5121;SDS011;2563;52.242;7.956;2022-10-19T05:23:42;5.10;;;2.30;;
5121;SDS011;2563;52.242;7.956;2022-10-19T05:26:12;7.40;;;2.80;;
5121;SDS011;2563;52.242;7.956;2022-10-19T05:28:41;19.30;;;4.13;;
5121;SDS011;2563;52.242;7.956;2022-10-19T05:31:11;12.60;;;4.23;;
5121;SDS011;2563;52.242;7.956;2022-10-19T05:33:38;15.00;;;4.80;;
5121;SDS011;2563;52.242;7.956;2022-10-19T05:36:18;15.10;;;4.40;;
5121;SDS011;2563;52.242;7.956;2022-10-19T05:38:46;11.63;;;4.17;;
5121;SDS011;2563;52.242;7.956;2022-10-19T05:41:13;10.43;;;3.73;;
5121;SDS011;2563;52.242;7.956;2022-10-19T05:43:39;9.50;;;3.43;;
5121;SDS011;2563;52.242;7.956;2022-10-19T05:46:07;8.10;;;3.10;;
5121;SDS011;2563;52.242;7.956;2022-10-19T05:48:34;11.27;;;3.50;;
5121;SDS011;2563;52.242;7.956;2022-10-19T05:51:02;7.63;;;2.90;;
5121;SDS011;2563;52.242;7.956;2022-10-19T05:53:29;6.07;;;3.23;;
5121;SDS011;2563;52.242;7.956;2022-10-19T05:55:55;8.70;;;3.00;;
5121;SDS011;2563;52.242;7.956;2022-10-19T05:58:21;8.10;;;3.33;;
5121;SDS011;2563;52.242;7.956;2022-10-19T06:00:53;7.70;;;3.37;;
5121;SDS011;2563;52.242;7.956;2022-10-19T06:03:20;8.57;;;3.10;;
5121;SDS011;2563;52.242;7.956;2022-10-19T06:05:47;7.77;;;3.30;;
5121;SDS011;2563;52.242;7.956;2022-10-19T06:08:13;10.90;;;2.70;;
5121;SDS011;2563;52.242;7.956;2022-10-19T06:10:40;11.83;;;2.53;;
5121;SDS011;2563;52.242;7.956;2022-10-19T06:13:05;10.37;;;3.27;;
5121;SDS011;2563;52.242;7.956;2022-10-19T06:15:34;21.63;;;3.53;;
5121;SDS011;2563;52.242;7.956;2022-10-19T06:18:02;12.10;;;3.87;;
5121;SDS011;2563;52.242;7.956;2022-10-19T06:20:28;12.87;;;3.87;;
5121;SDS011;2563;52.242;7.956;2022-10-19T06:22:54;11.33;;;3.50;;
5121;SDS011;2563;52.242;7.956;2022-10-19T06:25:19;20.83;;;3.63;;
5121;SDS011;2563;52.242;7.956;2022-10-19T06:27:45;12.17;;;3.30;;
5121;SDS011;2563;52.242;7.956;2022-10-19T06:30:11;8.43;;;3.50;;
5121;SDS011;2563;52.242;7.956;2022-10-19T06:32:37;7.83;;;3.50;;
5121;SDS011;2563;52.242;7.956;2022-10-19T06:35:02;9.10;;;3.37;;
5121;SDS011;2563;52.242;7.956;2022-10-19T06:37:27;6.83;;;3.60;;
5121;SDS011;2563;52.242;7.956;2022-10-19T06:39:53;11.60;;;3.80;;
5121;SDS011;2563;52.242;7.956;2022-10-19T06:42:18;12.50;;;3.70;;
5121;SDS011;2563;52.242;7.956;2022-10-19T06:44:43;10.50;;;3.93;;
5121;SDS011;2563;52.242;7.956;2022-10-19T06:47:09;16.70;;;4.10;;
5121;SDS011;2563;52.242;7.956;2022-10-19T06:49:35;8.17;;;3.13;;
5121;SDS011;2563;52.242;7.956;2022-10-19T06:52:01;9.90;;;2.80;;
5121;SDS011;2563;52.242;7.956;2022-10-19T06:54:27;10.83;;;3.40;;
5121;SDS011;2563;52.242;7.956;2022-10-19T06:56:52;7.17;;;2.60;;
5121;SDS011;2563;52.242;7.956;2022-10-19T06:59:17;6.87;;;3.30;;
5121;SDS011;2563;52.242;7.956;2022-10-19T07:01:43;8.97;;;3.13;;
5121;SDS011;2563;52.242;7.956;2022-10-19T07:04:08;11.73;;;2.70;;
5121;SDS011;2563;52.242;7.956;2022-10-19T07:06:34;6.78;;;2.60;;
5121;SDS011;2563;52.242;7.956;2022-10-19T07:08:59;9.53;;;2.93;;
5121;SDS011;2563;52.242;7.956;2022-10-19T07:11:24;13.80;;;2.90;;
5121;SDS011;2563;52.242;7.956;2022-10-19T07:13:51;7.63;;;3.43;;
5121;SDS011;2563;52.242;7.956;2022-10-19T07:16:17;9.67;;;3.20;;
5121;SDS011;2563;52.242;7.956;2022-10-19T07:18:43;8.13;;;3.37;;
5121;SDS011;2563;52.242;7.956;2022-10-19T07:21:09;8.73;;;3.40;;
5121;SDS011;2563;52.242;7.956;2022-10-19T07:23:37;10.97;;;3.43;;
5121;SDS011;2563;52.242;7.956;2022-10-19T07:26:09;9.23;;;4.20;;
5121;SDS011;2563;52.242;7.956;2022-10-19T07:28:40;13.40;;;4.00;;
5121;SDS011;2563;52.242;7.956;2022-10-19T07:31:08;14.57;;;3.87;;
5121;SDS011;2563;52.242;7.956;2022-10-19T07:33:36;12.83;;;3.40;;
5121;SDS011;2563;52.242;7.956;2022-10-19T07:36:03;26.07;;;4.27;;
5121;SDS011;2563;52.242;7.956;2022-10-19T07:38:31;12.73;;;3.80;;
5121;SDS011;2563;52.242;7.956;2022-10-19T07:41:03;9.27;;;3.77;;
5121;SDS011;2563;52.242;7.956;2022-10-19T07:43:33;8.17;;;3.57;;
5121;SDS011;2563;52.242;7.956;2022-10-19T07:46:06;9.77;;;3.73;;
5121;SDS011;2563;52.242;7.956;2022-10-19T07:48:33;11.47;;;3.90;;
5121;SDS011;2563;52.242;7.956;2022-10-19T07:51:00;8.67;;;3.53;;
5121;SDS011;2563;52.242;7.956;2022-10-19T07:53:26;11.83;;;4.60;;
5121;SDS011;2563;52.242;7.956;2022-10-19T07:55:51;14.03;;;4.10;;
5121;SDS011;2563;52.242;7.956;2022-10-19T07:58:17;10.50;;;4.40;;
5121;SDS011;2563;52.242;7.956;2022-10-19T08:00:42;6.87;;;3.70;;
5121;SDS011;2563;52.242;7.956;2022-10-19T08:03:08;9.87;;;4.40;;
5121;SDS011;2563;52.242;7.956;2022-10-19T08:05:33;10.57;;;4.87;;
5121;SDS011;2563;52.242;7.956;2022-10-19T08:07:59;14.77;;;5.53;;
5121;SDS011;2563;52.242;7.956;2022-10-19T08:10:24;14.63;;;5.00;;
5121;SDS011;2563;52.242;7.956;2022-10-19T08:12:50;9.90;;;4.23;;
5121;SDS011;2563;52.242;7.956;2022-10-19T08:15:15;16.40;;;4.83;;
5121;SDS011;2563;52.242;7.956;2022-10-19T08:17:40;10.67;;;4.10;;
5121;SDS011;2563;52.242;7.956;2022-10-19T08:20:06;10.23;;;4.80;;
5121;SDS011;2563;52.242;7.956;2022-10-19T08:22:32;11.70;;;4.13;;
5121;SDS011;2563;52.242;7.956;2022-10-19T08:24:57;10.10;;;4.40;;
5121;SDS011;2563;52.242;7.956;2022-10-19T08:27:23;10.17;;;4.00;;
5121;SDS011;2563;52.242;7.956;2022-10-19T08:29:48;14.93;;;4.57;;
5121;SDS011;2563;52.242;7.956;2022-10-19T08:32:14;7.30;;;3.60;;
5121;SDS011;2563;52.242;7.956;2022-10-19T08:34:39;11.13;;;4.03;;
5121;SDS011;2563;52.242;7.956;2022-10-19T08:37:05;17.40;;;4.73;;
5121;SDS011;2563;52.242;7.956;2022-10-19T08:39:30;8.40;;;4.27;;
5121;SDS011;2563;52.242;7.956;2022-10-19T08:49:55;11.27;;;4.10;;
5121;SDS011;2563;52.242;7.956;2022-10-19T08:52:23;8.43;;;4.00;;
5121;SDS011;2563;52.242;7.956;2022-10-19T08:55:00;16.40;;;3.77;;
5121;SDS011;2563;52.242;7.956;2022-10-19T09:00:26;8.93;;;3.83;;
5121;SDS011;2563;52.242;7.956;2022-10-19T09:09:03;11.70;;;3.30;;
5121;SDS011;2563;52.242;7.956;2022-10-19T09:11:31;10.63;;;3.33;;
5121;SDS011;2563;52.242;7.956;2022-10-19T09:14:04;8.90;;;3.13;;
5121;SDS011;2563;52.242;7.956;2022-10-19T09:16:36;9.60;;;3.27;;
5121;SDS011;2563;52.242;7.956;2022-10-19T09:19:02;11.70;;;3.40;;
5121;SDS011;2563;52.242;7.956;2022-10-19T09:21:42;10.13;;;3.30;;
5121;SDS011;2563;52.242;7.956;2022-10-19T09:24:16;7.70;;;2.70;;
5121;SDS011;2563;52.242;7.956;2022-10-19T09:26:53;12.27;;;3.80;;
5121;SDS011;2563;52.242;7.956;2022-10-19T09:29:37;10.90;;;3.27;;
5121;SDS011;2563;52.242;7.956;2022-10-19T09:32:12;11.07;;;3.83;;
5121;SDS011;2563;52.242;7.956;2022-10-19T09:34:43;9.67;;;3.73;;
5121;SDS011;2563;52.242;7.956;2022-10-19T09:37:13;6.90;;;2.30;;
5121;SDS011;2563;52.242;7.956;2022-10-19T09:39:38;9.10;;;3.17;;
5121;SDS011;2563;52.242;7.956;2022-10-19T09:44:32;10.73;;;3.00;;
5121;SDS011;2563;52.242;7.956;2022-10-19T09:50:18;9.57;;;1.97;;
5121;SDS011;2563;52.242;7.956;2022-10-19T09:52:51;6.80;;;1.70;;
5121;SDS011;2563;52.242;7.956;2022-10-19T09:55:52;13.03;;;2.43;;
5121;SDS011;2563;52.242;7.956;2022-10-19T10:00:48;6.00;;;1.70;;
5121;SDS011;2563;52.242;7.956;2022-10-19T10:05:52;14.47;;;2.20;;
5121;SDS011;2563;52.242;7.956;2022-10-19T10:08:20;8.73;;;1.93;;
5121;SDS011;2563;52.242;7.956;2022-10-19T10:10:55;11.73;;;2.47;;
5121;SDS011;2563;52.242;7.956;2022-10-19T10:13:23;6.27;;;1.50;;
5121;SDS011;2563;52.242;7.956;2022-10-19T10:15:55;6.83;;;1.70;;
5121;SDS011;2563;52.242;7.956;2022-10-19T10:18:24;5.53;;;1.70;;
5121;SDS011;2563;52.242;7.956;2022-10-19T10:21:01;7.73;;;1.67;;
5121;SDS011;2563;52.242;7.956;2022-10-19T10:23:30;6.43;;;1.70;;
5121;SDS011;2563;52.242;7.956;2022-10-19T10:26:00;9.43;;;2.03;;
5121;SDS011;2563;52.242;7.956;2022-10-19T10:28:27;11.07;;;2.33;;
5121;SDS011;2563;52.242;7.956;2022-10-19T10:30:54;10.03;;;2.60;;
5121;SDS011;2563;52.242;7.956;2022-10-19T10:33:26;10.27;;;2.20;;
5121;SDS011;2563;52.242;7.956;2022-10-19T10:35:54;8.23;;;1.37;;
5121;SDS011;2563;52.242;7.956;2022-10-19T10:38:26;5.23;;;1.20;;
5121;SDS011;2563;52.242;7.956;2022-10-19T10:41:02;4.90;;;1.43;;
5121;SDS011;2563;52.242;7.956;2022-10-19T10:43:34;9.30;;;1.70;;
5121;SDS011;2563;52.242;7.956;2022-10-19T10:46:13;4.70;;;1.37;;
5121;SDS011;2563;52.242;7.956;2022-10-19T10:48:44;8.80;;;1.80;;
5121;SDS011;2563;52.242;7.956;2022-10-19T10:51:26;7.83;;;1.23;;
5121;SDS011;2563;52.242;7.956;2022-10-19T10:56:38;7.43;;;1.70;;
5121;SDS011;2563;52.242;7.956;2022-10-19T10:59:17;7.40;;;1.60;;
5121;SDS011;2563;52.242;7.956;2022-10-19T11:04:30;10.07;;;1.83;;
5121;SDS011;2563;52.242;7.956;2022-10-19T11:07:00;10.17;;;2.20;;
5121;SDS011;2563;52.242;7.956;2022-10-19T11:09:42;13.00;;;2.27;;
5121;SDS011;2563;52.242;7.956;2022-10-19T11:12:11;7.30;;;2.00;;
5121;SDS011;2563;52.242;7.956;2022-10-19T11:14:58;7.33;;;1.77;;
5121;SDS011;2563;52.242;7.956;2022-10-19T11:17:30;9.27;;;1.70;;
5121;SDS011;2563;52.242;7.956;2022-10-19T11:20:00;12.50;;;2.00;;
5121;SDS011;2563;52.242;7.956;2022-10-19T11:28:07;13.20;;;3.73;;
5121;SDS011;2563;52.242;7.956;2022-10-19T11:30:47;8.37;;;3.67;;
5121;SDS011;2563;52.242;7.956;2022-10-19T11:36:29;10.40;;;3.60;;
5121;SDS011;2563;52.242;7.956;2022-10-19T11:46:52;7.60;;;3.17;;
5121;SDS011;2563;52.242;7.956;2022-10-19T11:49:22;9.00;;;3.70;;
5121;SDS011;2563;52.242;7.956;2022-10-19T11:51:57;12.70;;;3.93;;
5121;SDS011;2563;52.242;7.956;2022-10-19T11:54:39;6.53;;;3.57;;
5121;SDS011;2563;52.242;7.956;2022-10-19T11:57:16;11.27;;;4.33;;
5121;SDS011;2563;52.242;7.956;2022-10-19T12:08:45;10.33;;;3.87;;
5121;SDS011;2563;52.242;7.956;2022-10-19T12:14:12;7.03;;;3.33;;
5121;SDS011;2563;52.242;7.956;2022-10-19T12:16:43;10.20;;;3.90;;
5121;SDS011;2563;52.242;7.956;2022-10-19T12:19:15;13.00;;;4.47;;
5121;SDS011;2563;52.242;7.956;2022-10-19T12:21:45;7.00;;;4.10;;
5121;SDS011;2563;52.242;7.956;2022-10-19T12:24:16;6.83;;;3.27;;
5121;SDS011;2563;52.242;7.956;2022-10-19T12:26:44;6.60;;;3.53;;
5121;SDS011;2563;52.242;7.956;2022-10-19T12:29:15;9.87;;;3.67;;
5121;SDS011;2563;52.242;7.956;2022-10-19T12:31:46;11.93;;;3.27;;
5121;SDS011;2563;52.242;7.956;2022-10-19T12:47:37;8.63;;;3.93;;
5121;SDS011;2563;52.242;7.956;2022-10-19T12:50:02;5.90;;;3.23;;
5121;SDS011;2563;52.242;7.956;2022-10-19T12:52:43;16.53;;;3.47;;
5121;SDS011;2563;52.242;7.956;2022-10-19T12:57:38;9.77;;;3.00;;
5121;SDS011;2563;52.242;7.956;2022-10-19T13:00:25;4.50;;;2.10;;
5121;SDS011;2563;52.242;7.956;2022-10-19T13:02:57;11.10;;;2.50;;
5121;SDS011;2563;52.242;7.956;2022-10-19T13:05:26;8.70;;;2.23;;
5121;SDS011;2563;52.242;7.956;2022-10-19T13:07:53;10.63;;;2.30;;
5121;SDS011;2563;52.242;7.956;2022-10-19T13:10:23;8.73;;;2.63;;
5121;SDS011;2563;52.242;7.956;2022-10-19T13:12:50;6.20;;;2.10;;
5121;SDS011;2563;52.242;7.956;2022-10-19T13:18:04;9.63;;;2.30;;
5121;SDS011;2563;52.242;7.956;2022-10-19T13:20:50;8.40;;;2.20;;
5121;SDS011;2563;52.242;7.956;2022-10-19T13:28:55;8.43;;;2.17;;
5121;SDS011;2563;52.242;7.956;2022-10-19T13:31:22;8.20;;;2.17;;
5121;SDS011;2563;52.242;7.956;2022-10-19T13:33:50;5.50;;;3.40;;
5121;SDS011;2563;52.242;7.956;2022-10-19T13:36:16;9.30;;;2.13;;
5121;SDS011;2563;52.242;7.956;2022-10-19T13:41:26;5.23;;;1.53;;
5121;SDS011;2563;52.242;7.956;2022-10-19T14:06:39;5.17;;;1.53;;
5121;SDS011;2563;52.242;7.956;2022-10-19T14:12:04;8.70;;;1.90;;
5121;SDS011;2563;52.242;7.956;2022-10-19T14:14:41;4.30;;;1.53;;
5121;SDS011;2563;52.242;7.956;2022-10-19T14:17:16;6.07;;;2.00;;
5121;SDS011;2563;52.242;7.956;2022-10-19T14:19:44;10.27;;;1.40;;
5121;SDS011;2563;52.242;7.956;2022-10-19T14:25:27;5.80;;;1.40;;
5121;SDS011;2563;52.242;7.956;2022-10-19T14:27:57;18.13;;;2.33;;
5121;SDS011;2563;52.242;7.956;2022-10-19T14:30:34;6.13;;;1.70;;
5121;SDS011;2563;52.242;7.956;2022-10-19T14:33:05;9.20;;;1.73;;
5121;SDS011;2563;52.242;7.956;2022-10-19T14:35:33;6.20;;;1.27;;
5121;SDS011;2563;52.242;7.956;2022-10-19T14:38:02;9.50;;;2.10;;
5121;SDS011;2563;52.242;7.956;2022-10-19T14:40:30;5.53;;;1.67;;
5121;SDS011;2563;52.242;7.956;2022-10-19T14:42:58;5.60;;;1.80;;
5121;SDS011;2563;52.242;7.956;2022-10-19T14:45:28;8.73;;;1.60;;
5121;SDS011;2563;52.242;7.956;2022-10-19T14:50:22;6.83;;;1.53;;
5121;SDS011;2563;52.242;7.956;2022-10-19T14:52:53;7.77;;;2.20;;
5121;SDS011;2563;52.242;7.956;2022-10-19T14:55:31;8.63;;;1.57;;
5121;SDS011;2563;52.242;7.956;2022-10-19T14:58:02;8.20;;;1.80;;
5121;SDS011;2563;52.242;7.956;2022-10-19T15:00:36;6.10;;;1.53;;
5121;SDS011;2563;52.242;7.956;2022-10-19T15:03:05;3.67;;;1.50;;
5121;SDS011;2563;52.242;7.956;2022-10-19T15:05:34;8.03;;;2.10;;
5121;SDS011;2563;52.242;7.956;2022-10-19T15:08:08;7.20;;;2.00;;
5121;SDS011;2563;52.242;7.956;2022-10-19T15:10:43;4.27;;;1.63;;
5121;SDS011;2563;52.242;7.956;2022-10-19T15:13:15;6.97;;;2.10;;
5121;SDS011;2563;52.242;7.956;2022-10-19T15:15:46;5.80;;;1.67;;
5121;SDS011;2563;52.242;7.956;2022-10-19T15:18:15;7.30;;;1.97;;
5121;SDS011;2563;52.242;7.956;2022-10-19T15:20:41;11.83;;;1.77;;
5121;SDS011;2563;52.242;7.956;2022-10-19T15:23:52;5.63;;;1.93;;
5121;SDS011;2563;52.242;7.956;2022-10-19T15:25:59;6.37;;;1.87;;
5121;SDS011;2563;52.242;7.956;2022-10-19T15:31:22;8.30;;;2.17;;
5121;SDS011;2563;52.242;7.956;2022-10-19T15:33:56;5.60;;;2.07;;
5121;SDS011;2563;52.242;7.956;2022-10-19T15:36:24;5.07;;;1.83;;
5121;SDS011;2563;52.242;7.956;2022-10-19T15:41:29;7.33;;;1.50;;
5121;SDS011;2563;52.242;7.956;2022-10-19T15:43:58;3.47;;;1.70;;
5121;SDS011;2563;52.242;7.956;2022-10-19T15:46:26;6.17;;;2.13;;
5121;SDS011;2563;52.242;7.956;2022-10-19T15:48:57;6.50;;;2.50;;
5121;SDS011;2563;52.242;7.956;2022-10-19T15:53:59;6.57;;;2.30;;
5121;SDS011;2563;52.242;7.956;2022-10-19T15:56:27;8.33;;;2.47;;
5121;SDS011;2563;52.242;7.956;2022-10-19T15:58:55;6.43;;;2.27;;
5121;SDS011;2563;52.242;7.956;2022-10-19T16:01:23;23.23;;;3.43;;
5121;SDS011;2563;52.242;7.956;2022-10-19T16:03:50;19.47;;;5.07;;
5121;SDS011;2563;52.242;7.956;2022-10-19T16:06:16;7.63;;;2.60;;
5121;SDS011;2563;52.242;7.956;2022-10-19T16:08:42;9.40;;;2.67;;
5121;SDS011;2563;52.242;7.956;2022-10-19T16:11:13;5.50;;;2.23;;
5121;SDS011;2563;52.242;7.956;2022-10-19T16:13:40;9.47;;;2.70;;
5121;SDS011;2563;52.242;7.956;2022-10-19T16:16:06;9.37;;;2.30;;
5121;SDS011;2563;52.242;7.956;2022-10-19T16:18:34;8.00;;;2.67;;
5121;SDS011;2563;52.242;7.956;2022-10-19T16:20:59;9.73;;;2.93;;
5121;SDS011;2563;52.242;7.956;2022-10-19T16:23:25;7.27;;;2.00;;
5121;SDS011;2563;52.242;7.956;2022-10-19T16:25:51;8.03;;;3.63;;
5121;SDS011;2563;52.242;7.956;2022-10-19T16:28:17;36.83;;;8.70;;
5121;SDS011;2563;52.242;7.956;2022-10-19T16:30:43;45.13;;;11.87;;
5121;SDS011;2563;52.242;7.956;2022-10-19T16:33:09;23.73;;;6.60;;
5121;SDS011;2563;52.242;7.956;2022-10-19T16:35:38;9.47;;;2.80;;
5121;SDS011;2563;52.242;7.956;2022-10-19T16:38:03;5.67;;;1.73;;
5121;SDS011;2563;52.242;7.956;2022-10-19T16:40:28;6.70;;;1.87;;
5121;SDS011;2563;52.242;7.956;2022-10-19T16:42:54;5.37;;;1.60;;
5121;SDS011;2563;52.242;7.956;2022-10-19T16:45:22;29.53;;;15.27;;
5121;SDS011;2563;52.242;7.956;2022-10-19T16:47:49;17.87;;;10.00;;
5121;SDS011;2563;52.242;7.956;2022-10-19T16:50:15;16.80;;;8.20;;
5121;SDS011;2563;52.242;7.956;2022-10-19T16:52:40;7.20;;;3.13;;
5121;SDS011;2563;52.242;7.956;2022-10-19T16:55:06;6.23;;;3.13;;
5121;SDS011;2563;52.242;7.956;2022-10-19T16:57:31;7.90;;;3.60;;
5121;SDS011;2563;52.242;7.956;2022-10-19T16:59:56;7.13;;;3.90;;
5121;SDS011;2563;52.242;7.956;2022-10-19T17:02:22;10.27;;;5.40;;
5121;SDS011;2563;52.242;7.956;2022-10-19T17:04:47;15.40;;;4.77;;
5121;SDS011;2563;52.242;7.956;2022-10-19T17:07:13;12.73;;;3.87;;
5121;SDS011;2563;52.242;7.956;2022-10-19T17:09:39;7.30;;;2.30;;
5121;SDS011;2563;52.242;7.956;2022-10-19T17:12:05;8.00;;;2.80;;
5121;SDS011;2563;52.242;7.956;2022-10-19T17:14:31;11.00;;;3.70;;
5121;SDS011;2563;52.242;7.956;2022-10-19T17:16:56;6.17;;;2.60;;
5121;SDS011;2563;52.242;7.956;2022-10-19T17:19:22;8.77;;;2.10;;
5121;SDS011;2563;52.242;7.956;2022-10-19T17:21:47;10.90;;;2.90;;
5121;SDS011;2563;52.242;7.956;2022-10-19T17:24:13;13.60;;;2.87;;
5121;SDS011;2563;52.242;7.956;2022-10-19T17:26:41;7.00;;;2.20;;
5121;SDS011;2563;52.242;7.956;2022-10-19T17:29:08;8.10;;;2.70;;
5121;SDS011;2563;52.242;7.956;2022-10-19T17:31:34;6.67;;;3.17;;
5121;SDS011;2563;52.242;7.956;2022-10-19T17:34:00;8.73;;;2.73;;
5121;SDS011;2563;52.242;7.956;2022-10-19T17:36:27;9.10;;;3.67;;
5121;SDS011;2563;52.242;7.956;2022-10-19T17:38:56;9.30;;;4.03;;
5121;SDS011;2563;52.242;7.956;2022-10-19T17:41:25;9.37;;;3.73;;
5121;SDS011;2563;52.242;7.956;2022-10-19T17:43:51;19.73;;;4.67;;
5121;SDS011;2563;52.242;7.956;2022-10-19T17:46:18;12.97;;;4.80;;
5121;SDS011;2563;52.242;7.956;2022-10-19T17:48:45;14.60;;;4.00;;
5121;SDS011;2563;52.242;7.956;2022-10-19T17:51:11;11.30;;;3.77;;
5121;SDS011;2563;52.242;7.956;2022-10-19T17:53:39;12.67;;;3.10;;
5121;SDS011;2563;52.242;7.956;2022-10-19T17:56:06;15.30;;;3.00;;
5121;SDS011;2563;52.242;7.956;2022-10-19T17:58:32;7.80;;;3.00;;